This is the latest recevied weather packets stored in our database for station/object TA3HRJ-12. If no packets are shown the sender has not sent any weather packets the latest 1 day(s).
| Time | Temp. | Humidity | Pressure | Rain* | Wind** | Luminosity | Snow |
|---|---|---|---|---|---|---|---|
| 1777920017 | 10.56° C | 45% | 1022.6 hPa | - | - | - | - |
| 1777919117 | 11.11° C | 44% | 1022.4 hPa | - | - | - | - |
| 1777918217 | 11.11° C | 44% | 1022.2 hPa | - | - | - | - |
| 1777917317 | 10.56° C | 45% | 1022 hPa | - | - | - | - |
| 1777916417 | 10.56° C | 45% | 1022 hPa | - | - | - | - |
| 1777915517 | 11.11° C | 45% | 1021.8 hPa | - | - | - | - |
| 1777914617 | 11.11° C | 44% | 1021.6 hPa | - | - | - | - |
| 1777913717 | 12.22° C | 44% | 1021.5 hPa | - | - | - | - |
| 1777912817 | 11.11° C | 44% | 1021.3 hPa | - | - | - | - |
| 1777911916 | 11.67° C | 44% | 1021.2 hPa | - | - | - | - |
| 1777911016 | 11.11° C | 44% | 1021 hPa | - | - | - | - |
| 1777910116 | 11.11° C | 45% | 1021 hPa | - | - | - | - |
| 1777909216 | 12.22° C | 44% | 1020.8 hPa | - | - | - | - |
| 1777908316 | 12.22° C | 44% | 1020.7 hPa | - | - | - | - |
| 1777907416 | 12.22° C | 45% | 1020.5 hPa | - | - | - | - |
| 1777906516 | 12.78° C | 41% | 1020.4 hPa | - | - | - | - |
| 1777905615 | 12.78° C | 41% | 1020.3 hPa | - | - | - | - |
| 1777904715 | 12.78° C | 40% | 1020.2 hPa | - | - | - | - |
| 1777903815 | 13.33° C | 39% | 1020.1 hPa | - | - | - | - |
| 1777902915 | 16.67° C | 34% | 1019.8 hPa | - | - | - | - |
| 1777902015 | 13.33° C | 40% | 1020 hPa | - | - | - | - |
| 1777901115 | 13.33° C | 42% | 1019.9 hPa | - | - | - | - |
| 1777900215 | 14.44° C | 40% | 1019.8 hPa | - | - | - | - |
| 1777899315 | 16.11° C | 37% | 1019.7 hPa | - | - | - | - |
| 1777898415 | 13.33° C | 42% | 1019.8 hPa | - | - | - | - |
* Rain since midnight (hover to see other rain measurements)
** Current wind speed in m/s (hover to see current wind gust speed)